Time;durP1;ratioP1;P1;durP2;ratioP2;P2;SDS_P1;SDS_P2;PMS_P1;PMS_P2;Temp;Humidity;BMP_temperature;BMP_pressure;BME280_temperature;BME280_humidity;BME280_pressure;Samples;Min_cycle;Max_cycle;Signal;HPM_P1;HPM_P2
2023/10/04 00:00:47;;;;;;;2.83;0.60;;;;;;;;;;6281875;22;20019;-80
2023/10/04 00:03:13;;;;;;;4.82;1.00;;;;;;;;;;6281121;22;20072;-80
2023/10/04 00:05:39;;;;;;;3.22;0.80;;;;;;;;;;6310030;22;20016;-80
2023/10/04 00:08:05;;;;;;;3.22;0.90;;;;;;;;;;6281724;22;20022;-81
2023/10/04 00:10:33;;;;;;;2.60;0.70;;;;;;;;;;6281555;22;20018;-81
2023/10/04 00:12:59;;;;;;;3.60;0.73;;;;;;;;;;6309325;22;20015;-81
2023/10/04 00:15:27;;;;;;;2.85;1.05;;;;;;;;;;6282504;22;20023;-81
2023/10/04 00:17:53;;;;;;;1.73;0.60;;;;;;;;;;6281711;22;20082;-81
2023/10/04 00:20:20;;;;;;;1.52;1.20;;;;;;;;;;6308559;22;20343;-81
2023/10/04 00:22:47;;;;;;;1.35;0.80;;;;;;;;;;6309273;22;20660;-81
2023/10/04 00:25:20;;;;;;;3.08;0.75;;;;;;;;;;6281379;22;20069;-81
2023/10/04 00:27:47;;;;;;;2.97;1.00;;;;;;;;;;6282268;22;20015;-81
2023/10/04 00:30:18;;;;;;;2.88;0.70;;;;;;;;;;6281042;22;20026;-80
2023/10/04 00:32:47;;;;;;;3.70;0.77;;;;;;;;;;6309469;22;20015;-80
2023/10/04 00:35:15;;;;;;;1.85;0.90;;;;;;;;;;6280416;22;20015;-80
2023/10/04 00:37:46;;;;;;;2.63;0.80;;;;;;;;;;6282164;22;20019;-81
2023/10/04 00:40:13;;;;;;;3.63;1.20;;;;;;;;;;6308438;22;20014;-80
2023/10/04 00:42:40;;;;;;;1.58;1.00;;;;;;;;;;6309836;22;20023;-80
2023/10/04 00:45:09;;;;;;;3.45;1.38;;;;;;;;;;6281392;22;20019;-80
2023/10/04 00:47:36;;;;;;;3.65;1.20;;;;;;;;;;6281489;22;20029;-80
2023/10/04 00:50:14;;;;;;;2.90;1.00;;;;;;;;;;6280498;22;20076;-80
2023/10/04 00:52:42;;;;;;;3.22;1.00;;;;;;;;;;6281918;22;20015;-80
2023/10/04 00:55:09;;;;;;;6.40;1.30;;;;;;;;;;6282450;22;20015;-80
2023/10/04 00:57:35;;;;;;;4.78;0.80;;;;;;;;;;6281168;22;20076;-80
2023/10/04 01:00:06;;;;;;;4.45;1.30;;;;;;;;;;6280618;22;20038;-80
2023/10/04 01:02:33;;;;;;;2.40;0.85;;;;;;;;;;6308390;22;20045;-80
2023/10/04 01:05:00;;;;;;;2.90;0.82;;;;;;;;;;6256157;22;20015;-80
2023/10/04 01:07:26;;;;;;;3.13;0.93;;;;;;;;;;6281978;22;20019;-80
2023/10/04 01:09:52;;;;;;;2.28;1.02;;;;;;;;;;6281533;22;20048;-80
2023/10/04 01:12:24;;;;;;;1.40;0.70;;;;;;;;;;6280724;22;20086;-80
2023/10/04 01:14:53;;;;;;;4.78;1.77;;;;;;;;;;6281154;22;20007;-80
2023/10/04 01:17:27;;;;;;;2.95;0.80;;;;;;;;;;6281710;22;20026;-80
2023/10/04 01:19:53;;;;;;;2.60;0.90;;;;;;;;;;6281760;22;20340;-80
2023/10/04 01:22:19;;;;;;;2.50;0.73;;;;;;;;;;6280989;22;20062;-80
2023/10/04 01:24:46;;;;;;;4.03;1.13;;;;;;;;;;6282259;22;20018;-80
2023/10/04 01:27:12;;;;;;;3.28;0.77;;;;;;;;;;6280321;22;20038;-80
2023/10/04 01:29:38;;;;;;;3.05;0.80;;;;;;;;;;6309554;22;20015;-80
2023/10/04 01:32:08;;;;;;;2.50;0.77;;;;;;;;;;6280623;22;20023;-80
2023/10/04 01:34:36;;;;;;;2.22;0.73;;;;;;;;;;6308806;22;20018;-80
2023/10/04 01:37:03;;;;;;;5.05;1.00;;;;;;;;;;6307782;22;20019;-80
2023/10/04 01:39:30;;;;;;;3.45;0.98;;;;;;;;;;6280287;22;20035;-80
2023/10/04 01:41:56;;;;;;;2.63;0.80;;;;;;;;;;6308562;22;20015;-80
2023/10/04 01:44:22;;;;;;;3.17;0.88;;;;;;;;;;6309502;22;20011;-80
2023/10/04 01:46:48;;;;;;;2.88;0.98;;;;;;;;;;6309120;22;20023;-80
2023/10/04 01:49:14;;;;;;;1.02;0.50;;;;;;;;;;6308930;22;20057;-80
2023/10/04 01:51:42;;;;;;;1.60;0.60;;;;;;;;;;6281074;22;20012;-80
2023/10/04 01:54:09;;;;;;;1.38;0.90;;;;;;;;;;6280837;22;20019;-80
2023/10/04 01:56:37;;;;;;;5.95;1.20;;;;;;;;;;6280234;22;20067;-80
2023/10/04 01:59:04;;;;;;;0.93;0.60;;;;;;;;;;6307991;22;20098;-80
2023/10/04 02:01:31;;;;;;;2.38;0.90;;;;;;;;;;6309122;22;20007;-80
2023/10/04 02:04:00;;;;;;;5.18;1.10;;;;;;;;;;6279871;22;20369;-80
2023/10/04 02:06:28;;;;;;;1.77;0.75;;;;;;;;;;6308061;22;20014;-80
2023/10/04 02:08:54;;;;;;;2.63;0.82;;;;;;;;;;6280245;22;20025;-80
2023/10/04 02:11:22;;;;;;;3.70;0.98;;;;;;;;;;6279921;22;20475;-80
2023/10/04 02:13:48;;;;;;;3.05;0.77;;;;;;;;;;6281579;22;20013;-80
2023/10/04 02:16:20;;;;;;;3.13;1.30;;;;;;;;;;6280385;22;20019;-80
2023/10/04 02:18:48;;;;;;;1.95;0.55;;;;;;;;;;6309157;22;20052;-80
2023/10/04 02:21:15;;;;;;;2.72;0.70;;;;;;;;;;6308361;22;20104;-80
2023/10/04 02:23:42;;;;;;;5.25;0.90;;;;;;;;;;6308820;22;20082;-80
2023/10/04 02:26:08;;;;;;;3.05;0.73;;;;;;;;;;6279786;22;20007;-80
2023/10/04 02:28:34;;;;;;;3.55;0.60;;;;;;;;;;6280433;22;20012;-80
2023/10/04 02:31:02;;;;;;;1.45;0.60;;;;;;;;;;6304415;22;20068;-79
2023/10/04 02:33:32;;;;;;;1.90;0.63;;;;;;;;;;6276864;22;20019;-79
2023/10/04 02:36:00;;;;;;;4.85;1.17;;;;;;;;;;6303340;22;20015;-79
2023/10/04 02:38:26;;;;;;;4.82;0.77;;;;;;;;;;6306192;22;20444;-79
2023/10/04 02:40:53;;;;;;;0.80;0.40;;;;;;;;;;6306544;22;20011;-79
2023/10/04 02:43:25;;;;;;;3.25;0.85;;;;;;;;;;6309944;22;20021;-79
2023/10/04 02:45:52;;;;;;;3.75;1.08;;;;;;;;;;6315239;22;20019;-79
2023/10/04 02:48:23;;;;;;;3.78;0.75;;;;;;;;;;6288675;22;20015;-79
2023/10/04 02:50:49;;;;;;;6.45;1.52;;;;;;;;;;6313870;22;20015;-79
2023/10/04 02:53:24;;;;;;;2.35;1.02;;;;;;;;;;6317423;22;20015;-79
2023/10/04 02:55:54;;;;;;;4.00;1.10;;;;;;;;;;6308727;22;20053;-79
2023/10/04 02:58:20;;;;;;;3.45;0.75;;;;;;;;;;6309127;22;20018;-79
2023/10/04 03:00:49;;;;;;;2.20;0.75;;;;;;;;;;6281773;22;20459;-79
2023/10/04 03:03:19;;;;;;;1.85;0.70;;;;;;;;;;6281452;22;20015;-79
2023/10/04 03:05:45;;;;;;;2.95;0.77;;;;;;;;;;6281708;22;20021;-79
2023/10/04 03:08:12;;;;;;;3.33;1.13;;;;;;;;;;6280066;22;20019;-79
2023/10/04 03:10:38;;;;;;;4.68;0.95;;;;;;;;;;6281506;22;20092;-79
2023/10/04 03:13:24;;;;;;;2.13;0.77;;;;;;;;;;6281648;22;20072;-79
2023/10/04 03:15:54;;;;;;;2.50;0.88;;;;;;;;;;6280990;22;20011;-79
2023/10/04 03:18:20;;;;;;;2.30;0.80;;;;;;;;;;6308634;22;20445;-79
2023/10/04 03:23:27;;;;;;;1.70;0.90;;;;;;;;;;6309679;22;20145;-80
2023/10/04 03:25:55;;;;;;;1.42;0.60;;;;;;;;;;6280413;22;20019;-80
2023/10/04 03:28:26;;;;;;;3.38;0.90;;;;;;;;;;6280266;22;20019;-80
2023/10/04 03:30:52;;;;;;;3.95;0.98;;;;;;;;;;6309324;22;20007;-80
2023/10/04 03:33:19;;;;;;;1.90;0.88;;;;;;;;;;6308334;22;20467;-80
2023/10/04 03:35:47;;;;;;;3.05;0.85;;;;;;;;;;6308525;22;20011;-80
2023/10/04 03:38:13;;;;;;;5.20;0.80;;;;;;;;;;6309484;22;20050;-80
2023/10/04 03:40:39;;;;;;;2.55;0.95;;;;;;;;;;6308945;22;20022;-80
2023/10/04 03:43:07;;;;;;;1.88;0.60;;;;;;;;;;6308071;22;20015;-80
2023/10/04 03:45:39;;;;;;;1.92;1.08;;;;;;;;;;6281244;22;20015;-80
2023/10/04 03:48:05;;;;;;;3.55;1.05;;;;;;;;;;6309283;22;20017;-80
2023/10/04 03:50:31;;;;;;;2.08;0.80;;;;;;;;;;6281887;22;20022;-80
2023/10/04 03:52:57;;;;;;;2.40;0.80;;;;;;;;;;6308811;22;20017;-80
2023/10/04 03:55:26;;;;;;;3.25;1.10;;;;;;;;;;6308577;22;20040;-80
2023/10/04 03:57:52;;;;;;;1.73;0.85;;;;;;;;;;6281190;22;20137;-80
2023/10/04 04:00:19;;;;;;;3.55;0.95;;;;;;;;;;6308803;22;20018;-80
2023/10/04 04:02:45;;;;;;;2.85;1.25;;;;;;;;;;6282435;22;20020;-80
2023/10/04 04:05:14;;;;;;;2.90;0.82;;;;;;;;;;6281159;22;20092;-80
2023/10/04 04:07:40;;;;;;;2.92;0.90;;;;;;;;;;6283383;22;20019;-80
2023/10/04 04:10:14;;;;;;;1.80;0.77;;;;;;;;;;6280535;22;20019;-80
2023/10/04 04:12:40;;;;;;;2.95;1.00;;;;;;;;;;6280762;22;20321;-80
2023/10/04 04:15:10;;;;;;;2.35;0.93;;;;;;;;;;6309513;22;20035;-80
2023/10/04 04:17:37;;;;;;;1.30;1.02;;;;;;;;;;6308029;22;20467;-78
2023/10/04 04:20:19;;;;;;;2.17;0.93;;;;;;;;;;6305344;22;20023;-78
2023/10/04 04:22:50;;;;;;;4.57;1.10;;;;;;;;;;6305891;22;20507;-78
2023/10/04 04:25:18;;;;;;;1.80;0.90;;;;;;;;;;6305157;22;20016;-78
2023/10/04 04:27:44;;;;;;;5.85;2.08;;;;;;;;;;6305821;22;20012;-78
2023/10/04 04:30:21;;;;;;;3.03;1.02;;;;;;;;;;6277775;22;20022;-78
2023/10/04 04:32:48;;;;;;;2.08;1.20;;;;;;;;;;6305577;22;20018;-78
2023/10/04 04:35:22;;;;;;;2.72;1.38;;;;;;;;;;6304918;22;20348;-78
2023/10/04 04:37:48;;;;;;;4.60;1.60;;;;;;;;;;6305668;22;20036;-78
2023/10/04 04:40:23;;;;;;;3.88;1.40;;;;;;;;;;6302079;22;20467;-78
2023/10/04 04:42:49;;;;;;;3.38;1.17;;;;;;;;;;6251885;22;20015;-78
2023/10/04 04:45:16;;;;;;;3.58;1.30;;;;;;;;;;6278818;22;20015;-81
2023/10/04 04:47:44;;;;;;;3.90;1.33;;;;;;;;;;6305038;22;20022;-79
2023/10/04 04:50:12;;;;;;;2.65;1.02;;;;;;;;;;6304435;22;20011;-79
2023/10/04 04:52:38;;;;;;;3.80;0.93;;;;;;;;;;6304768;22;20018;-79
2023/10/04 04:55:04;;;;;;;3.15;1.02;;;;;;;;;;6305244;22;20011;-79
2023/10/04 04:57:31;;;;;;;3.53;1.17;;;;;;;;;;6301656;22;20083;-79
2023/10/04 04:59:57;;;;;;;2.25;1.13;;;;;;;;;;6306225;22;20014;-79
2023/10/04 05:02:28;;;;;;;5.80;1.48;;;;;;;;;;6304441;22;20015;-79
2023/10/04 05:04:54;;;;;;;2.05;1.25;;;;;;;;;;6276228;22;20077;-79
2023/10/04 05:07:20;;;;;;;4.22;1.40;;;;;;;;;;6276453;22;20359;-78
2023/10/04 05:09:46;;;;;;;5.15;1.35;;;;;;;;;;6305571;22;20104;-79
2023/10/04 05:12:12;;;;;;;3.47;1.20;;;;;;;;;;6303361;22;20090;-79
2023/10/04 05:14:38;;;;;;;3.97;1.08;;;;;;;;;;6303769;22;20519;-79
2023/10/04 05:17:05;;;;;;;5.45;1.33;;;;;;;;;;6305069;22;20017;-79
2023/10/04 05:19:30;;;;;;;4.97;1.33;;;;;;;;;;6304260;22;20339;-79
2023/10/04 05:21:56;;;;;;;5.68;2.13;;;;;;;;;;6304241;22;20047;-79
2023/10/04 05:24:22;;;;;;;1.98;1.13;;;;;;;;;;6305114;22;20141;-79
2023/10/04 05:26:48;;;;;;;2.15;1.20;;;;;;;;;;6302450;22;20348;-78
2023/10/04 05:29:14;;;;;;;3.20;1.10;;;;;;;;;;6303119;22;20015;-78
2023/10/04 05:31:42;;;;;;;5.38;1.58;;;;;;;;;;6303269;22;20065;-77
2023/10/04 05:34:08;;;;;;;3.70;1.70;;;;;;;;;;6303868;22;20018;-77
2023/10/04 05:36:39;;;;;;;1.73;1.15;;;;;;;;;;6276663;22;20015;-77
2023/10/04 05:39:07;;;;;;;2.78;1.00;;;;;;;;;;6302755;22;20018;-77
2023/10/04 05:41:35;;;;;;;2.55;0.98;;;;;;;;;;6303225;22;20435;-77
2023/10/04 05:44:01;;;;;;;2.67;1.08;;;;;;;;;;6302489;22;20015;-77
2023/10/04 05:46:28;;;;;;;4.50;1.50;;;;;;;;;;6301757;22;20086;-77
2023/10/04 05:48:54;;;;;;;7.38;1.52;;;;;;;;;;6303079;22;20026;-77
2023/10/04 05:51:24;;;;;;;2.80;1.00;;;;;;;;;;6302667;22;20416;-77
2023/10/04 05:53:51;;;;;;;;;;;;;;;;;;6304400;22;20018;-76
2023/10/04 05:56:19;;;;;;;3.75;1.10;;;;;;;;;;6303182;22;20228;-76
2023/10/04 05:58:46;;;;;;;4.43;1.13;;;;;;;;;;6276252;22;20011;-76
2023/10/04 06:01:19;;;;;;;5.35;1.60;;;;;;;;;;6303858;22;20015;-76
2023/10/04 06:03:45;;;;;;;3.38;1.08;;;;;;;;;;6305076;22;20019;-76
2023/10/04 06:06:11;;;;;;;5.93;1.38;;;;;;;;;;6303901;22;20007;-76
2023/10/04 06:08:38;;;;;;;3.65;1.35;;;;;;;;;;6274404;22;20422;-78
2023/10/04 06:11:04;;;;;;;3.50;1.40;;;;;;;;;;6275086;22;20015;-78
2023/10/04 06:13:30;;;;;;;3.92;1.55;;;;;;;;;;6276167;22;20016;-78
2023/10/04 06:15:58;;;;;;;4.53;1.48;;;;;;;;;;6303919;22;20233;-78
2023/10/04 06:18:28;;;;;;;2.15;1.48;;;;;;;;;;6308959;22;20152;-82
2023/10/04 06:20:55;;;;;;;3.92;1.35;;;;;;;;;;6291529;22;20054;-82
2023/10/04 06:23:22;;;;;;;4.68;1.30;;;;;;;;;;6313042;22;20011;-78
2023/10/04 06:25:52;;;;;;;4.25;2.17;;;;;;;;;;6276120;22;20474;-78
2023/10/04 06:28:19;;;;;;;4.00;1.40;;;;;;;;;;6303152;22;20014;-78
2023/10/04 06:30:48;;;;;;;4.57;1.33;;;;;;;;;;6304362;22;20011;-78
2023/10/04 06:33:15;;;;;;;3.78;1.42;;;;;;;;;;6303712;22;20336;-78
2023/10/04 06:35:44;;;;;;;4.22;1.40;;;;;;;;;;6303955;22;20069;-78
2023/10/04 06:38:11;;;;;;;2.30;1.50;;;;;;;;;;6303193;22;20367;-78
2023/10/04 06:40:37;;;;;;;4.78;1.23;;;;;;;;;;6304470;22;20050;-79
2023/10/04 06:43:05;;;;;;;5.90;1.60;;;;;;;;;;6274100;22;20058;-78
2023/10/04 06:45:31;;;;;;;3.00;1.35;;;;;;;;;;6303671;22;20466;-78
2023/10/04 06:47:58;;;;;;;4.93;1.40;;;;;;;;;;6276312;22;20004;-78
2023/10/04 06:50:28;;;;;;;3.88;1.38;;;;;;;;;;6304107;22;20043;-79
2023/10/04 06:52:54;;;;;;;5.38;2.20;;;;;;;;;;6308426;22;20408;-80
2023/10/04 06:55:21;;;;;;;4.53;1.70;;;;;;;;;;6308231;22;20082;-80
2023/10/04 06:57:47;;;;;;;3.58;1.55;;;;;;;;;;6282137;22;20023;-80
2023/10/04 07:00:18;;;;;;;5.78;2.03;;;;;;;;;;6279261;22;20012;-80
2023/10/04 07:02:49;;;;;;;2.53;1.42;;;;;;;;;;6309889;22;20076;-80
2023/10/04 07:05:19;;;;;;;7.53;1.52;;;;;;;;;;6282067;22;20026;-81
2023/10/04 07:07:51;;;;;;;4.28;1.70;;;;;;;;;;6281592;22;20021;-81
2023/10/04 07:10:20;;;;;;;2.45;1.60;;;;;;;;;;6280192;22;20072;-80
2023/10/04 07:12:46;;;;;;;3.83;1.23;;;;;;;;;;6308365;22;20016;-80
2023/10/04 07:15:13;;;;;;;5.43;1.50;;;;;;;;;;6308064;22;20083;-80
2023/10/04 07:17:39;;;;;;;5.63;1.60;;;;;;;;;;6308849;22;20018;-80
2023/10/04 07:20:07;;;;;;;6.72;2.10;;;;;;;;;;6279658;22;20015;-80
2023/10/04 07:22:33;;;;;;;5.15;1.70;;;;;;;;;;6305512;22;20015;-82
2023/10/04 07:25:01;;;;;;;3.80;1.77;;;;;;;;;;6305259;22;20348;-84
2023/10/04 07:27:27;;;;;;;3.97;1.50;;;;;;;;;;6277627;22;20093;-84
2023/10/04 07:29:53;;;;;;;4.28;1.88;;;;;;;;;;6305793;22;20333;-84
2023/10/04 07:32:20;;;;;;;5.97;1.58;;;;;;;;;;6280165;22;20023;-84
2023/10/04 07:34:46;;;;;;;4.63;1.42;;;;;;;;;;6280183;22;20329;-84
2023/10/04 07:37:12;;;;;;;6.53;1.80;;;;;;;;;;6277710;22;20080;-84
2023/10/04 07:39:38;;;;;;;5.72;2.03;;;;;;;;;;6279337;22;20049;-84
2023/10/04 07:42:05;;;;;;;6.55;2.22;;;;;;;;;;6307391;22;20011;-84
2023/10/04 07:44:30;;;;;;;5.85;2.05;;;;;;;;;;6305637;22;20026;-84
2023/10/04 07:47:00;;;;;;;4.07;1.52;;;;;;;;;;6277847;22;20464;-84
2023/10/04 07:49:26;;;;;;;4.65;1.85;;;;;;;;;;6308609;22;20030;-83
2023/10/04 07:51:53;;;;;;;5.13;1.45;;;;;;;;;;6307915;22;20015;-79
2023/10/04 07:54:19;;;;;;;4.13;1.40;;;;;;;;;;6279880;22;20018;-80
2023/10/04 07:56:45;;;;;;;2.88;1.60;;;;;;;;;;6309675;22;20395;-81
2023/10/04 07:59:12;;;;;;;4.50;1.73;;;;;;;;;;6308305;22;20336;-80
2023/10/04 08:01:41;;;;;;;5.00;1.58;;;;;;;;;;6308810;22;20015;-78
2023/10/04 08:04:07;;;;;;;5.95;1.50;;;;;;;;;;6303733;22;20012;-78
2023/10/04 08:06:35;;;;;;;3.28;1.40;;;;;;;;;;6307024;22;20011;-79
2023/10/04 08:09:01;;;;;;;6.03;1.65;;;;;;;;;;6305813;22;20078;-80
2023/10/04 08:11:27;;;;;;;8.00;3.00;;;;;;;;;;6307979;22;20447;-80
2023/10/04 08:13:53;;;;;;;5.18;1.92;;;;;;;;;;6280989;22;20018;-80
2023/10/04 08:16:19;;;;;;;6.18;1.63;;;;;;;;;;6254755;22;20012;-80
2023/10/04 08:18:45;;;;;;;3.88;1.58;;;;;;;;;;6281227;22;20018;-80
2023/10/04 08:21:11;;;;;;;6.88;1.60;;;;;;;;;;6255674;22;20444;-80
2023/10/04 08:23:38;;;;;;;12.90;2.10;;;;;;;;;;6257264;22;20090;-81
2023/10/04 08:26:12;;;;;;;2.97;1.50;;;;;;;;;;6309289;22;20025;-81
2023/10/04 08:28:41;;;;;;;4.85;1.80;;;;;;;;;;6281012;22;20015;-81
2023/10/04 08:31:08;;;;;;;7.63;1.60;;;;;;;;;;6282029;22;20011;-81
2023/10/04 08:33:34;;;;;;;4.72;1.58;;;;;;;;;;6282558;22;20068;-81
2023/10/04 08:36:08;;;;;;;5.78;1.50;;;;;;;;;;6281479;22;20023;-82
2023/10/04 08:38:34;;;;;;;6.40;1.90;;;;;;;;;;6308808;22;20007;-81
2023/10/04 08:41:04;;;;;;;7.05;2.58;;;;;;;;;;6309547;22;20007;-82
2023/10/04 08:43:33;;;;;;;4.97;1.63;;;;;;;;;;6276685;22;20343;-82
2023/10/04 08:46:02;;;;;;;4.25;2.08;;;;;;;;;;6281002;22;20064;-82
2023/10/04 08:48:29;;;;;;;5.50;2.00;;;;;;;;;;6307705;22;20061;-82
2023/10/04 08:51:09;;;;;;;6.65;3.08;;;;;;;;;;6281298;22;20070;-81
2023/10/04 08:53:35;;;;;;;7.43;1.90;;;;;;;;;;6311216;22;20011;-81
2023/10/04 08:56:08;;;;;;;6.13;2.00;;;;;;;;;;6310145;22;20011;-82
2023/10/04 08:58:35;;;;;;;4.10;1.55;;;;;;;;;;6310575;22;20008;-82
2023/10/04 09:01:02;;;;;;;5.70;1.90;;;;;;;;;;6309914;22;20042;-82
2023/10/04 09:03:28;;;;;;;5.78;2.30;;;;;;;;;;6309075;22;20060;-82
2023/10/04 09:05:54;;;;;;;4.45;2.05;;;;;;;;;;6309312;22;20041;-82
2023/10/04 09:08:22;;;;;;;4.80;1.90;;;;;;;;;;6311279;22;20167;-84
2023/10/04 09:10:48;;;;;;;6.57;1.65;;;;;;;;;;6285260;22;20026;-82
2023/10/04 09:13:14;;;;;;;6.20;1.52;;;;;;;;;;6284776;22;20023;-82
2023/10/04 09:15:40;;;;;;;8.55;1.85;;;;;;;;;;6285035;22;20033;-82
2023/10/04 09:18:07;;;;;;;5.00;1.95;;;;;;;;;;6282237;22;20086;-84
2023/10/04 09:20:33;;;;;;;8.15;1.95;;;;;;;;;;6281331;22;20076;-82
2023/10/04 09:23:00;;;;;;;4.38;1.90;;;;;;;;;;6280475;22;20340;-83
2023/10/04 09:25:39;;;;;;;8.13;2.67;;;;;;;;;;6280172;22;20015;-83
2023/10/04 09:28:08;;;;;;;7.50;2.00;;;;;;;;;;6280610;22;20047;-80
2023/10/04 09:30:36;;;;;;;9.35;2.20;;;;;;;;;;6312767;22;20037;-81
2023/10/04 09:33:05;;;;;;;6.82;1.58;;;;;;;;;;6310294;22;20114;-81
2023/10/04 09:35:44;;;;;;;6.88;2.55;;;;;;;;;;6311713;22;20039;-81
2023/10/04 09:38:17;;;;;;;6.15;1.60;;;;;;;;;;6313257;22;20018;-81
2023/10/04 09:40:53;;;;;;;9.65;2.13;;;;;;;;;;6260509;22;20015;-81
2023/10/04 09:43:32;;;;;;;8.13;2.20;;;;;;;;;;6316449;22;20021;-79
2023/10/04 09:45:58;;;;;;;5.43;1.85;;;;;;;;;;6314253;22;20041;-82
2023/10/04 09:48:25;;;;;;;9.70;3.13;;;;;;;;;;6318475;22;20025;-82
2023/10/04 09:50:59;;;;;;;5.75;2.40;;;;;;;;;;6313816;22;20531;-82
2023/10/04 09:53:25;;;;;;;7.55;2.85;;;;;;;;;;6309607;22;20465;-80
2023/10/04 09:55:52;;;;;;;6.82;2.33;;;;;;;;;;6310026;22;20007;-80
2023/10/04 09:58:20;;;;;;;6.15;2.20;;;;;;;;;;6310599;22;20011;-79
2023/10/04 10:00:46;;;;;;;6.30;2.42;;;;;;;;;;6311987;22;20022;-79
2023/10/04 10:03:12;;;;;;;6.80;1.92;;;;;;;;;;6311034;22;20456;-79
2023/10/04 10:05:40;;;;;;;7.55;2.38;;;;;;;;;;6283922;22;20043;-79
2023/10/04 10:08:08;;;;;;;11.20;2.42;;;;;;;;;;6309601;22;20018;-79
2023/10/04 10:10:42;;;;;;;4.38;1.70;;;;;;;;;;6310466;22;20340;-79
2023/10/04 10:13:09;;;;;;;6.93;2.40;;;;;;;;;;6308595;22;20666;-79
2023/10/04 10:15:37;;;;;;;6.38;2.05;;;;;;;;;;6281986;22;20087;-80
2023/10/04 10:18:04;;;;;;;4.55;2.25;;;;;;;;;;6281236;22;20015;-80
2023/10/04 10:20:31;;;;;;;10.32;2.15;;;;;;;;;;6308407;22;20011;-80
2023/10/04 10:22:59;;;;;;;5.97;1.65;;;;;;;;;;6309100;22;20023;-80
2023/10/04 10:25:26;;;;;;;7.25;2.40;;;;;;;;;;6309227;22;20060;-80
2023/10/04 10:28:02;;;;;;;6.65;2.20;;;;;;;;;;6308608;22;20037;-79
2023/10/04 10:30:28;;;;;;;4.63;2.35;;;;;;;;;;6307449;22;20014;-79
2023/10/04 10:32:56;;;;;;;8.18;2.17;;;;;;;;;;6307582;22;20086;-80
2023/10/04 10:35:41;;;;;;;10.68;2.78;;;;;;;;;;6281619;22;20026;-79
2023/10/04 10:38:26;;;;;;;8.65;2.65;;;;;;;;;;6307808;22;20056;-79
2023/10/04 10:40:52;;;;;;;6.30;2.17;;;;;;;;;;6255194;22;20479;-80
2023/10/04 10:43:18;;;;;;;4.43;2.15;;;;;;;;;;6280516;22;20023;-79
2023/10/04 10:45:44;;;;;;;7.20;2.22;;;;;;;;;;6308162;22;20015;-80
2023/10/04 10:48:13;;;;;;;6.90;2.67;;;;;;;;;;6308268;22;20033;-80
2023/10/04 10:50:42;;;;;;;8.77;2.47;;;;;;;;;;6308212;22;20055;-80
2023/10/04 10:53:10;;;;;;;4.72;1.70;;;;;;;;;;6307742;22;20395;-80
2023/10/04 10:55:36;;;;;;;5.55;2.20;;;;;;;;;;6280286;22;20011;-80
2023/10/04 10:58:03;;;;;;;7.32;2.25;;;;;;;;;;6280841;22;20012;-80
2023/10/04 11:00:32;;;;;;;6.63;2.08;;;;;;;;;;6307640;22;20012;-79
2023/10/04 11:02:59;;;;;;;7.90;2.08;;;;;;;;;;6308568;22;20527;-80
2023/10/04 11:05:25;;;;;;;5.78;2.50;;;;;;;;;;6309874;22;20018;-80
2023/10/04 11:07:52;;;;;;;7.68;2.13;;;;;;;;;;6311816;22;20340;-80
2023/10/04 11:10:20;;;;;;;3.75;1.70;;;;;;;;;;6310893;22;20012;-80
2023/10/04 11:12:46;;;;;;;5.85;1.90;;;;;;;;;;6310304;22;20019;-80
2023/10/04 11:15:13;;;;;;;8.75;2.95;;;;;;;;;;6312126;22;20055;-81
2023/10/04 11:17:39;;;;;;;5.10;2.65;;;;;;;;;;6312396;22;20011;-80
2023/10/04 11:20:12;;;;;;;6.00;2.10;;;;;;;;;;6310304;22;20015;-80
2023/10/04 11:22:43;;;;;;;6.05;2.63;;;;;;;;;;6310871;22;21484;-80
2023/10/04 11:25:11;;;;;;;6.03;1.90;;;;;;;;;;6311121;22;20015;-80
2023/10/04 11:27:40;;;;;;;5.50;1.98;;;;;;;;;;6310542;22;20023;-80
2023/10/04 11:30:06;;;;;;;8.82;2.55;;;;;;;;;;6309424;22;20514;-79
2023/10/04 11:32:32;;;;;;;8.55;2.58;;;;;;;;;;6310740;22;20042;-80
2023/10/04 11:35:07;;;;;;;7.95;2.40;;;;;;;;;;6308844;22;20011;-80
2023/10/04 11:37:33;;;;;;;6.35;2.13;;;;;;;;;;6311131;22;20043;-81
2023/10/04 11:40:00;;;;;;;6.22;1.80;;;;;;;;;;6309539;22;20060;-80
2023/10/04 11:42:26;;;;;;;5.93;2.35;;;;;;;;;;6283463;22;20094;-80
2023/10/04 11:44:53;;;;;;;5.55;1.90;;;;;;;;;;6309180;22;20064;-80
2023/10/04 11:47:26;;;;;;;5.03;2.05;;;;;;;;;;6282686;22;20160;-79
2023/10/04 11:49:58;;;;;;;6.50;2.05;;;;;;;;;;6283468;22;20045;-80
2023/10/04 11:52:28;;;;;;;4.82;1.88;;;;;;;;;;6311232;22;20481;-80
2023/10/04 11:54:54;;;;;;;8.70;2.75;;;;;;;;;;6282219;22;20008;-80
2023/10/04 11:57:24;;;;;;;8.32;2.65;;;;;;;;;;6309526;22;20039;-79
2023/10/04 11:59:50;;;;;;;7.82;2.55;;;;;;;;;;6282843;22;20428;-80
2023/10/04 12:02:16;;;;;;;7.60;2.90;;;;;;;;;;6308915;22;20019;-79
2023/10/04 12:04:42;;;;;;;7.53;2.78;;;;;;;;;;6310179;22;20397;-80
2023/10/04 12:07:09;;;;;;;6.70;2.17;;;;;;;;;;6280729;22;20095;-80
2023/10/04 12:09:35;;;;;;;4.35;1.83;;;;;;;;;;6281494;22;20090;-80
2023/10/04 12:12:03;;;;;;;4.97;2.20;;;;;;;;;;6280485;22;20085;-80
2023/10/04 12:14:32;;;;;;;8.18;2.60;;;;;;;;;;6309861;22;20015;-80
2023/10/04 12:17:04;;;;;;;8.25;3.03;;;;;;;;;;6308601;22;20022;-80
2023/10/04 12:19:37;;;;;;;4.70;2.00;;;;;;;;;;6309347;22;20007;-80
2023/10/04 12:22:11;;;;;;;7.53;1.92;;;;;;;;;;6281169;22;20042;-80
2023/10/04 12:24:38;;;;;;;8.30;2.58;;;;;;;;;;6281275;22;20023;-80
2023/10/04 12:27:08;;;;;;;7.40;2.35;;;;;;;;;;6309319;22;20011;-79
2023/10/04 12:29:37;;;;;;;5.53;2.42;;;;;;;;;;6309255;22;20132;-79
2023/10/04 12:32:05;;;;;;;8.88;2.95;;;;;;;;;;6256889;22;20021;-80
2023/10/04 12:34:31;;;;;;;6.00;2.38;;;;;;;;;;6281696;22;20011;-80
2023/10/04 12:36:57;;;;;;;6.65;2.65;;;;;;;;;;6308452;22;20012;-80
2023/10/04 12:39:24;;;;;;;4.13;2.00;;;;;;;;;;6308964;22;20014;-80
2023/10/04 12:41:50;;;;;;;5.75;1.88;;;;;;;;;;6257327;22;20059;-80
2023/10/04 12:44:19;;;;;;;8.90;2.55;;;;;;;;;;6280732;22;20111;-80
2023/10/04 12:46:49;;;;;;;3.53;1.70;;;;;;;;;;6282040;22;20352;-80
2023/10/04 12:49:18;;;;;;;7.45;2.22;;;;;;;;;;6282701;22;20385;-81
2023/10/04 12:51:45;;;;;;;7.80;2.50;;;;;;;;;;6283118;22;20456;-80
2023/10/04 12:54:11;;;;;;;6.18;2.20;;;;;;;;;;6256255;22;20062;-80
2023/10/04 12:56:38;;;;;;;6.63;1.95;;;;;;;;;;6281874;22;20019;-80
2023/10/04 12:59:07;;;;;;;9.02;2.05;;;;;;;;;;6282387;22;20011;-80
2023/10/04 13:01:34;;;;;;;7.38;2.00;;;;;;;;;;6256808;22;20395;-80
2023/10/04 13:04:01;;;;;;;6.15;2.22;;;;;;;;;;6258004;22;20407;-80
2023/10/04 13:06:30;;;;;;;6.47;2.58;;;;;;;;;;6283849;22;20402;-80
2023/10/04 13:08:57;;;;;;;7.88;2.38;;;;;;;;;;6313162;22;20018;-80
2023/10/04 13:11:24;;;;;;;5.75;1.83;;;;;;;;;;6310170;22;20018;-80
2023/10/04 13:13:53;;;;;;;7.57;2.20;;;;;;;;;;6282062;22;20015;-80
2023/10/04 13:16:21;;;;;;;7.03;2.83;;;;;;;;;;6282831;22;20371;-80
2023/10/04 13:18:48;;;;;;;6.32;2.45;;;;;;;;;;6282331;22;20011;-80
2023/10/04 13:21:15;;;;;;;8.18;2.10;;;;;;;;;;6281336;22;20019;-80
2023/10/04 13:23:41;;;;;;;6.40;2.50;;;;;;;;;;6281713;22;20019;-80
2023/10/04 13:26:08;;;;;;;5.85;2.58;;;;;;;;;;6308387;22;20072;-80
2023/10/04 13:28:34;;;;;;;9.25;2.70;;;;;;;;;;6309305;22;20015;-80
2023/10/04 13:31:00;;;;;;;3.70;1.88;;;;;;;;;;6309745;22;20015;-79
2023/10/04 13:33:28;;;;;;;8.55;2.53;;;;;;;;;;6308800;22;20068;-80
2023/10/04 13:35:54;;;;;;;6.13;2.10;;;;;;;;;;6281767;22;20011;-80
2023/10/04 13:38:21;;;;;;;4.93;2.10;;;;;;;;;;6282219;22;20332;-80
2023/10/04 13:40:48;;;;;;;6.45;2.03;;;;;;;;;;6307956;22;20018;-80
2023/10/04 13:43:14;;;;;;;7.68;2.05;;;;;;;;;;6307166;22;20290;-81
2023/10/04 13:45:40;;;;;;;7.65;2.17;;;;;;;;;;6282551;22;20019;-82
2023/10/04 13:48:09;;;;;;;3.28;1.35;;;;;;;;;;6281971;22;20053;-82
2023/10/04 13:50:37;;;;;;;6.82;2.03;;;;;;;;;;6308990;22;20011;-82
2023/10/04 13:53:03;;;;;;;7.38;2.03;;;;;;;;;;6280354;22;20023;-82
2023/10/04 13:55:29;;;;;;;3.80;1.80;;;;;;;;;;6256697;22;20041;-82
2023/10/04 13:57:56;;;;;;;6.78;1.90;;;;;;;;;;6309507;22;20482;-82
2023/10/04 14:00:22;;;;;;;4.40;1.98;;;;;;;;;;6309518;22;20019;-82
2023/10/04 14:02:50;;;;;;;5.03;1.92;;;;;;;;;;6310445;22;20081;-82
2023/10/04 14:05:19;;;;;;;9.80;2.63;;;;;;;;;;6281990;22;20444;-82
2023/10/04 14:07:51;;;;;;;5.38;1.60;;;;;;;;;;6310460;22;20015;-82
2023/10/04 14:10:24;;;;;;;4.88;2.00;;;;;;;;;;6282586;22;20317;-82
2023/10/04 14:12:55;;;;;;;7.93;2.13;;;;;;;;;;6306559;22;20023;-80
2023/10/04 14:15:22;;;;;;;6.57;1.85;;;;;;;;;;6309206;22;20015;-81
2023/10/04 14:17:49;;;;;;;6.68;2.15;;;;;;;;;;6281569;22;20015;-81
2023/10/04 14:20:16;;;;;;;5.95;1.80;;;;;;;;;;6308829;22;20012;-81
2023/10/04 14:22:43;;;;;;;6.68;1.75;;;;;;;;;;6281963;22;20022;-81
2023/10/04 14:25:11;;;;;;;5.85;1.95;;;;;;;;;;6281079;22;20098;-81
2023/10/04 14:27:38;;;;;;;5.75;1.67;;;;;;;;;;6307288;22;20090;-81
2023/10/04 14:30:08;;;;;;;6.05;2.05;;;;;;;;;;6279559;22;20093;-82
2023/10/04 14:32:35;;;;;;;6.05;1.52;;;;;;;;;;6308809;22;20106;-81
2023/10/04 14:35:02;;;;;;;6.93;1.98;;;;;;;;;;6281081;22;20015;-81
2023/10/04 14:37:29;;;;;;;5.95;1.92;;;;;;;;;;6308339;22;20018;-81
2023/10/04 14:39:58;;;;;;;6.10;2.15;;;;;;;;;;6281460;22;20061;-81
2023/10/04 14:42:24;;;;;;;5.30;2.30;;;;;;;;;;6282714;22;20015;-80
2023/10/04 14:44:51;;;;;;;4.93;1.90;;;;;;;;;;6281637;22;20073;-80
2023/10/04 14:47:17;;;;;;;4.38;1.63;;;;;;;;;;6307406;22;20128;-79
2023/10/04 14:49:44;;;;;;;6.78;2.38;;;;;;;;;;6304130;22;20011;-79